Time;durP1;ratioP1;P1;durP2;ratioP2;P2;SDS_P1;SDS_P2;PMS_P1;PMS_P2;Temp;Humidity;BMP_temperature;BMP_pressure;BME280_temperature;BME280_humidity;BME280_pressure;Samples;Min_cycle;Max_cycle;Signal;HPM_P1;HPM_P2
2021/05/01 00:00:32;;;;;;;59.00;33.40;;;6.90;99.90;;;;;;4996799;28;20208;-71
2021/05/01 00:02:57;;;;;;;54.90;32.47;;;6.90;99.90;;;;;;5014700;28;20167;-71
2021/05/01 00:05:23;;;;;;;52.77;32.30;;;6.90;99.90;;;;;;5014319;28;20176;-71
2021/05/01 00:07:48;;;;;;;56.17;33.33;;;6.90;99.90;;;;;;5014442;28;20172;-71
2021/05/01 00:10:14;;;;;;;56.07;32.17;;;6.80;99.90;;;;;;4996935;28;20199;-71
2021/05/01 00:12:40;;;;;;;55.23;32.60;;;6.80;99.90;;;;;;4996904;28;20214;-71
2021/05/01 00:15:07;;;;;;;52.30;31.67;;;6.80;99.90;;;;;;4996993;28;20175;-71
2021/05/01 00:17:32;;;;;;;58.23;32.80;;;6.70;99.90;;;;;;4997090;28;20188;-71
2021/05/01 00:19:58;;;;;;;52.20;31.37;;;6.70;99.90;;;;;;4980338;28;20544;-71
2021/05/01 00:22:23;;;;;;;56.57;32.23;;;6.70;99.90;;;;;;4964411;28;20682;-71
2021/05/01 00:24:49;;;;;;;57.53;32.70;;;6.70;99.90;;;;;;4997217;28;20670;-71
2021/05/01 00:27:14;;;;;;;50.97;31.23;;;6.70;99.90;;;;;;4996692;28;20662;-72
2021/05/01 00:29:40;;;;;;;49.43;31.13;;;6.60;99.90;;;;;;4996592;28;20226;-71
2021/05/01 00:32:06;;;;;;;52.43;31.17;;;6.60;99.90;;;;;;4980522;28;20218;-71
2021/05/01 00:34:32;;;;;;;51.90;32.20;;;6.60;99.90;;;;;;4996692;28;20175;-72
2021/05/01 00:36:57;;;;;;;51.80;32.00;;;6.60;99.90;;;;;;4996745;28;20698;-72
2021/05/01 00:39:23;;;;;;;52.47;31.53;;;6.60;99.90;;;;;;4996168;28;20254;-71
2021/05/01 00:41:48;;;;;;;54.53;33.10;;;6.60;99.90;;;;;;4996583;28;20199;-71
2021/05/01 00:44:14;;;;;;;51.03;31.90;;;6.60;99.90;;;;;;4996282;28;20180;-71
2021/05/01 00:46:39;;;;;;;52.77;32.73;;;6.60;99.90;;;;;;4980146;28;20190;-71
2021/05/01 00:49:05;;;;;;;58.77;33.83;;;6.60;99.90;;;;;;4979874;28;20192;-71
2021/05/01 00:51:34;;;;;;;56.57;33.43;;;6.60;99.90;;;;;;4979964;28;20187;-71
2021/05/01 00:54:00;;;;;;;56.90;33.27;;;6.60;99.90;;;;;;4979955;28;20175;-71
2021/05/01 00:56:25;;;;;;;54.43;33.03;;;6.60;99.90;;;;;;4963922;28;20223;-71
2021/05/01 00:58:51;;;;;;;55.27;33.83;;;6.60;99.90;;;;;;4979871;28;20253;-71
2021/05/01 01:01:19;;;;;;;55.70;33.27;;;6.70;99.90;;;;;;4979798;28;20195;-71
2021/05/01 01:03:48;;;;;;;53.33;33.23;;;6.70;99.90;;;;;;4964235;28;20720;-71
2021/05/01 01:06:14;;;;;;;58.33;33.83;;;6.80;99.90;;;;;;4979977;28;20180;-71
2021/05/01 01:08:39;;;;;;;58.67;35.20;;;6.80;99.90;;;;;;4979818;28;20202;-71
2021/05/01 01:11:05;;;;;;;54.43;33.43;;;6.90;99.90;;;;;;4995596;28;20180;-71
2021/05/01 01:13:31;;;;;;;56.53;33.30;;;6.90;99.90;;;;;;4963437;28;20184;-71
2021/05/01 01:15:56;;;;;;;55.80;34.43;;;6.90;99.90;;;;;;4995129;28;20549;-71
2021/05/01 01:18:22;;;;;;;54.03;33.20;;;7.00;99.90;;;;;;4995688;28;20233;-71
2021/05/01 01:20:47;;;;;;;54.63;33.53;;;7.00;99.90;;;;;;4979083;28;20202;-71
2021/05/01 01:23:13;;;;;;;58.60;34.10;;;7.00;99.90;;;;;;4996006;28;20179;-71
2021/05/01 01:25:39;;;;;;;57.67;34.07;;;7.00;99.90;;;;;;4979407;28;20265;-71
2021/05/01 01:28:04;;;;;;;54.43;33.57;;;7.10;99.90;;;;;;5012975;28;20701;-71
2021/05/01 01:30:31;;;;;;;55.93;33.20;;;7.10;99.90;;;;;;4995345;28;20191;-71
2021/05/01 01:32:58;;;;;;;50.43;32.73;;;7.20;99.90;;;;;;4979609;28;20168;-71
2021/05/01 01:35:23;;;;;;;57.93;34.17;;;7.20;99.90;;;;;;4979342;28;20185;-71
2021/05/01 01:37:49;;;;;;;52.83;32.43;;;7.20;99.90;;;;;;4995588;28;20172;-70
2021/05/01 01:40:15;;;;;;;55.23;33.47;;;7.20;99.90;;;;;;4978739;28;20282;-71
2021/05/01 01:42:41;;;;;;;58.03;33.27;;;7.20;99.90;;;;;;4995343;28;20199;-71
2021/05/01 01:45:10;;;;;;;54.90;33.70;;;7.20;99.90;;;;;;4979133;28;20182;-71
2021/05/01 01:47:36;;;;;;;56.80;33.53;;;7.20;99.90;;;;;;4963197;28;20183;-71
2021/05/01 01:50:02;;;;;;;59.87;33.73;;;7.20;99.90;;;;;;4994959;28;20189;-71
2021/05/01 01:52:28;;;;;;;55.57;33.83;;;7.20;99.90;;;;;;4979069;28;20684;-71
2021/05/01 01:54:53;;;;;;;53.23;33.27;;;7.20;99.90;;;;;;4995191;28;20208;-71
2021/05/01 01:57:19;;;;;;;54.47;33.27;;;7.20;99.90;;;;;;4994929;28;20206;-71
2021/05/01 01:59:44;;;;;;;54.70;33.80;;;7.20;99.90;;;;;;4994939;28;20199;-71
2021/05/01 02:02:10;;;;;;;53.97;33.70;;;7.20;99.90;;;;;;4978758;28;20207;-72
2021/05/01 02:04:36;;;;;;;49.73;32.13;;;7.20;99.90;;;;;;4994998;28;20172;-71
2021/05/01 02:07:02;;;;;;;55.83;33.20;;;7.40;99.90;;;;;;4978814;28;20178;-71
2021/05/01 02:09:28;;;;;;;55.23;33.40;;;7.40;99.90;;;;;;4994681;28;20215;-71
2021/05/01 02:11:53;;;;;;;57.07;35.63;;;7.50;99.90;;;;;;4994822;28;20261;-73
2021/05/01 02:14:19;;;;;;;55.73;35.00;;;7.60;99.90;;;;;;4962403;28;20229;-71
2021/05/01 02:16:45;;;;;;;56.80;35.63;;;7.60;99.90;;;;;;4978557;28;20179;-71
2021/05/01 02:19:10;;;;;;;54.97;34.63;;;7.50;99.90;;;;;;4978632;28;20210;-71
2021/05/01 02:21:36;;;;;;;58.00;35.90;;;7.50;99.90;;;;;;5012002;28;20202;-71
2021/05/01 02:24:01;;;;;;;57.70;37.00;;;7.50;99.90;;;;;;4994683;28;20175;-71
2021/05/01 02:26:27;;;;;;;60.97;37.40;;;7.40;99.90;;;;;;4994682;28;20584;-71
2021/05/01 02:28:53;;;;;;;55.13;36.77;;;7.30;99.90;;;;;;4962254;28;20290;-71
2021/05/01 02:31:18;;;;;;;61.40;36.87;;;7.30;99.90;;;;;;4994573;28;20198;-71
2021/05/01 02:33:44;;;;;;;57.73;36.63;;;7.30;99.90;;;;;;4978272;28;20211;-72
2021/05/01 02:36:10;;;;;;;58.83;35.03;;;7.30;99.90;;;;;;4978350;28;20184;-71
2021/05/01 02:38:35;;;;;;;57.97;35.00;;;7.20;99.90;;;;;;4978176;28;20179;-71
2021/05/01 02:41:01;;;;;;;57.97;35.77;;;7.20;99.90;;;;;;4994332;28;20679;-71
2021/05/01 02:43:26;;;;;;;55.43;35.03;;;7.30;99.90;;;;;;4978284;28;20246;-71
2021/05/01 02:45:52;;;;;;;50.10;33.97;;;7.20;99.90;;;;;;4994630;28;20677;-72
2021/05/01 02:48:17;;;;;;;49.00;32.43;;;7.20;99.90;;;;;;4994485;28;20657;-71
2021/05/01 02:50:43;;;;;;;50.87;33.20;;;7.20;99.90;;;;;;5011086;28;20647;-72
2021/05/01 02:53:10;;;;;;;49.10;32.00;;;7.20;99.90;;;;;;4978321;28;20179;-72
2021/05/01 02:55:36;;;;;;;47.53;32.00;;;7.20;99.90;;;;;;4994511;28;20168;-71
2021/05/01 02:58:01;;;;;;;50.80;32.43;;;7.20;99.90;;;;;;4978134;28;20172;-72
2021/05/01 03:00:27;;;;;;;49.50;30.87;;;7.20;99.90;;;;;;5011788;28;20717;-71
2021/05/01 03:02:53;;;;;;;44.60;30.13;;;7.10;99.90;;;;;;4962377;28;20210;-71
2021/05/01 03:05:19;;;;;;;45.97;30.43;;;7.10;99.90;;;;;;4994449;28;20181;-72
2021/05/01 03:07:44;;;;;;;46.80;31.27;;;7.10;99.90;;;;;;4994416;28;20251;-71
2021/05/01 03:10:15;;;;;;;48.43;31.40;;;7.10;99.90;;;;;;4994048;28;20187;-71
2021/05/01 03:12:41;;;;;;;47.43;30.97;;;7.10;99.90;;;;;;4994166;28;20608;-71
2021/05/01 03:15:07;;;;;;;47.33;31.93;;;7.00;99.90;;;;;;4994171;28;20203;-71
2021/05/01 03:17:32;;;;;;;44.90;31.00;;;7.00;99.90;;;;;;4978427;28;20203;-71
2021/05/01 03:19:58;;;;;;;46.27;30.37;;;7.10;99.90;;;;;;4977844;28;20670;-71
2021/05/01 03:22:24;;;;;;;44.30;28.37;;;7.00;99.90;;;;;;5011527;28;20207;-71
2021/05/01 03:24:49;;;;;;;41.33;28.37;;;7.10;99.90;;;;;;4978010;28;20177;-71
2021/05/01 03:27:15;;;;;;;39.63;27.93;;;7.00;99.90;;;;;;4994279;28;20207;-71
2021/05/01 03:29:40;;;;;;;41.23;28.47;;;7.00;99.90;;;;;;4977695;28;20203;-71
2021/05/01 03:32:06;;;;;;;43.63;29.30;;;7.00;99.90;;;;;;4978095;28;20168;-71
2021/05/01 03:34:32;;;;;;;40.97;28.03;;;6.90;99.90;;;;;;4977822;28;20175;-72
2021/05/01 03:36:57;;;;;;;40.50;27.80;;;7.00;99.90;;;;;;4994128;28;20180;-71
2021/05/01 03:39:23;;;;;;;35.23;26.57;;;7.10;99.90;;;;;;4995689;28;20226;-72
2021/05/01 03:41:49;;;;;;;35.93;25.77;;;7.20;99.90;;;;;;5014886;28;20279;-72
2021/05/01 03:44:15;;;;;;;35.77;25.37;;;7.20;99.90;;;;;;5015023;28;20177;-72
2021/05/01 03:46:40;;;;;;;34.73;24.27;;;7.20;99.90;;;;;;5014880;28;20171;-72
2021/05/01 03:49:06;;;;;;;37.20;26.13;;;7.20;99.90;;;;;;4981208;28;20810;-72
2021/05/01 03:51:31;;;;;;;37.30;26.33;;;7.30;99.90;;;;;;4997242;28;20910;-72
2021/05/01 03:53:57;;;;;;;37.33;26.13;;;7.10;99.90;;;;;;4997317;28;20187;-72
2021/05/01 03:56:23;;;;;;;38.03;26.00;;;7.00;99.90;;;;;;4997090;28;20187;-72
2021/05/01 03:58:49;;;;;;;38.60;25.80;;;7.00;99.90;;;;;;5014759;28;20199;-72
2021/05/01 04:01:15;;;;;;;35.10;26.03;;;7.00;99.90;;;;;;5014476;28;20202;-72
2021/05/01 04:03:40;;;;;;;36.50;25.70;;;7.00;99.90;;;;;;4997155;28;20609;-72
2021/05/01 04:06:06;;;;;;;36.43;25.93;;;6.90;99.90;;;;;;4997166;28;20755;-72
2021/05/01 04:08:32;;;;;;;33.97;24.63;;;7.00;99.90;;;;;;4997085;28;20646;-72
2021/05/01 04:10:58;;;;;;;33.83;24.97;;;7.00;99.90;;;;;;4997065;28;20259;-72
2021/05/01 04:16:45;;;;;;;33.23;24.37;;;7.20;99.90;;;;;;5014069;28;20634;-72
2021/05/01 04:22:32;;;;;;;33.93;24.30;;;7.20;99.90;;;;;;5013885;28;20198;-72
2021/05/01 04:24:58;;;;;;;35.73;24.80;;;7.10;99.90;;;;;;4996809;28;20172;-72
2021/05/01 04:27:24;;;;;;;34.20;24.77;;;7.10;99.90;;;;;;4996677;28;20176;-72
2021/05/01 04:29:49;;;;;;;34.57;24.03;;;7.00;99.90;;;;;;5013977;28;20624;-72
2021/05/01 04:32:15;;;;;;;32.53;24.53;;;7.10;99.90;;;;;;4996600;28;20183;-72
2021/05/01 04:34:40;;;;;;;32.17;24.83;;;7.10;99.90;;;;;;5014124;28;20179;-72
2021/05/01 04:37:06;;;;;;;37.73;25.17;;;7.10;99.90;;;;;;5013944;28;20186;-72
2021/05/01 04:39:32;;;;;;;36.53;25.27;;;7.10;99.90;;;;;;4980256;28;20214;-72
2021/05/01 04:41:57;;;;;;;37.70;25.83;;;7.10;99.90;;;;;;4980073;28;20195;-72
2021/05/01 04:44:23;;;;;;;34.17;23.73;;;7.10;99.90;;;;;;4980275;28;20702;-72
2021/05/01 04:46:50;;;;;;;37.03;25.33;;;7.10;99.90;;;;;;4980267;28;20532;-72
2021/05/01 04:49:15;;;;;;;37.17;25.60;;;7.10;99.90;;;;;;4996372;28;20314;-72
2021/05/01 04:51:41;;;;;;;34.13;24.13;;;7.20;99.90;;;;;;4995045;28;20262;-72
2021/05/01 04:54:07;;;;;;;33.93;24.53;;;7.30;99.90;;;;;;4996340;28;20194;-72
2021/05/01 04:56:33;;;;;;;37.57;25.87;;;7.30;99.90;;;;;;5013549;28;20179;-72
2021/05/01 04:58:58;;;;;;;37.60;24.63;;;7.30;99.90;;;;;;5013639;28;20199;-72
2021/05/01 05:01:24;;;;;;;35.67;25.47;;;7.40;99.90;;;;;;5013340;28;20195;-72
2021/05/01 05:07:12;;;;;;;36.07;26.03;;;7.50;99.90;;;;;;5012921;28;20170;-72
2021/05/01 05:09:37;;;;;;;37.87;25.57;;;7.50;99.90;;;;;;5013386;28;20941;-72
2021/05/01 05:12:03;;;;;;;39.20;26.07;;;7.60;99.90;;;;;;4995781;28;20715;-72
2021/05/01 05:14:29;;;;;;;37.73;25.03;;;7.70;99.90;;;;;;4996170;28;20190;-73
2021/05/01 05:16:54;;;;;;;36.90;25.87;;;7.80;99.90;;;;;;4979637;28;20176;-72
2021/05/01 05:19:20;;;;;;;34.53;25.87;;;7.80;99.90;;;;;;4979491;28;20570;-72
2021/05/01 05:21:45;;;;;;;36.00;26.27;;;7.90;99.90;;;;;;4995472;28;20333;-72
2021/05/01 05:24:11;;;;;;;34.60;24.80;;;8.00;99.90;;;;;;4995709;28;20176;-72
2021/05/01 05:26:38;;;;;;;34.83;24.70;;;8.10;99.90;;;;;;5013056;28;20183;-72
2021/05/01 05:29:04;;;;;;;36.47;25.90;;;8.20;99.90;;;;;;5013077;28;20188;-72
2021/05/01 05:31:30;;;;;;;38.00;25.73;;;8.20;99.90;;;;;;4995380;28;20805;-72
2021/05/01 05:33:55;;;;;;;38.20;26.10;;;8.20;99.90;;;;;;4995499;28;20176;-72
2021/05/01 05:36:21;;;;;;;33.13;23.93;;;8.20;99.90;;;;;;4995367;28;20187;-72
2021/05/01 05:38:46;;;;;;;34.40;25.10;;;8.20;99.90;;;;;;4979347;28;20210;-72
2021/05/01 05:41:12;;;;;;;35.00;24.53;;;8.20;99.90;;;;;;4995308;28;20226;-72
2021/05/01 05:43:37;;;;;;;36.67;25.27;;;8.20;99.90;;;;;;5012731;28;20176;-72
2021/05/01 05:46:12;;;;;;;41.77;26.03;;;8.20;99.90;;;;;;4995387;28;20182;-72
2021/05/01 05:48:38;;;;;;;34.57;24.60;;;8.20;99.90;;;;;;4996440;28;20188;-72
2021/05/01 05:51:04;;;;;;;38.60;24.13;;;8.10;99.90;;;;;;4979269;28;20527;-72
2021/05/01 05:53:30;;;;;;;39.33;25.03;;;8.20;99.90;;;;;;4979011;28;20175;-72
2021/05/01 05:55:55;;;;;;;33.90;24.13;;;8.20;99.90;;;;;;4978914;28;20186;-72
2021/05/01 05:58:21;;;;;;;36.60;23.20;;;8.20;99.90;;;;;;4994972;28;20269;-72
2021/05/01 06:00:46;;;;;;;36.73;24.43;;;8.30;99.90;;;;;;4978532;28;20263;-72
2021/05/01 06:03:15;;;;;;;34.53;23.33;;;8.20;99.90;;;;;;4994697;28;20176;-72
2021/05/01 06:05:41;;;;;;;34.33;23.17;;;8.30;99.90;;;;;;4995295;28;20225;-72
2021/05/01 06:08:08;;;;;;;33.30;23.20;;;8.40;99.90;;;;;;4978904;28;20693;-72
2021/05/01 06:10:33;;;;;;;28.03;21.57;;;8.40;99.90;;;;;;4978734;28;20584;-72
2021/05/01 06:13:00;;;;;;;31.83;22.03;;;8.40;99.90;;;;;;4978682;28;20174;-72
2021/05/01 06:15:25;;;;;;;31.07;21.13;;;8.60;99.90;;;;;;4994924;28;20175;-72
2021/05/01 06:17:52;;;;;;;28.20;20.77;;;8.70;99.90;;;;;;4994775;28;20184;-72
2021/05/01 06:20:18;;;;;;;28.97;20.93;;;8.80;99.90;;;;;;4978205;28;20254;-72
2021/05/01 06:22:43;;;;;;;28.67;19.37;;;9.00;99.90;;;;;;4978512;28;20674;-72
2021/05/01 06:25:11;;;;;;;28.20;19.53;;;9.20;99.90;;;;;;4975204;28;20211;-72
2021/05/01 06:27:37;;;;;;;27.57;19.93;;;9.30;99.90;;;;;;4993488;28;20173;-72
2021/05/01 06:30:07;;;;;;;28.20;19.30;;;9.30;99.90;;;;;;5011412;28;20670;-72
2021/05/01 06:32:32;;;;;;;27.87;19.80;;;9.30;99.90;;;;;;4994659;28;20266;-72
2021/05/01 06:34:58;;;;;;;25.77;18.87;;;9.40;99.90;;;;;;5011994;28;20639;-71
2021/05/01 06:37:24;;;;;;;27.00;18.13;;;9.30;99.90;;;;;;4994504;28;20181;-70
2021/05/01 06:43:14;;;;;;;30.00;19.77;;;9.20;99.90;;;;;;5011511;28;20273;-71
2021/05/01 06:45:41;;;;;;;31.63;20.97;;;9.20;99.90;;;;;;4994677;28;20183;-73
2021/05/01 06:48:07;;;;;;;32.53;20.67;;;9.30;99.90;;;;;;4994450;28;20724;-72
2021/05/01 06:50:33;;;;;;;33.07;21.17;;;9.40;99.90;;;;;;4978154;28;20214;-71
2021/05/01 06:52:59;;;;;;;29.83;20.83;;;9.70;99.90;;;;;;4994561;28;20267;-71
2021/05/01 06:55:26;;;;;;;27.97;20.23;;;10.00;99.90;;;;;;5011674;28;20646;-71
2021/05/01 07:01:14;;;;;;;30.27;20.07;;;10.30;99.90;;;;;;5011293;28;20298;-71
2021/05/01 07:03:41;;;;;;;29.97;20.83;;;10.20;99.90;;;;;;4994209;28;20203;-71
2021/05/01 07:06:07;;;;;;;29.93;20.80;;;10.10;99.90;;;;;;4978132;28;20187;-71
2021/05/01 07:08:32;;;;;;;28.40;20.10;;;10.10;99.90;;;;;;4994361;28;20180;-71
2021/05/01 07:10:58;;;;;;;29.03;20.33;;;10.00;99.90;;;;;;4994107;28;20194;-71
2021/05/01 07:13:23;;;;;;;29.93;19.77;;;10.00;99.90;;;;;;4994128;28;20278;-71
2021/05/01 07:15:49;;;;;;;28.60;20.37;;;10.00;99.90;;;;;;4997869;28;20246;-71
2021/05/01 07:18:14;;;;;;;26.90;20.70;;;9.90;99.90;;;;;;4998086;28;20184;-72
2021/05/01 07:20:40;;;;;;;31.53;21.27;;;10.00;99.90;;;;;;4981485;28;20210;-71
2021/05/01 07:23:06;;;;;;;28.17;20.83;;;10.70;99.90;;;;;;4998015;28;20191;-71
2021/05/01 07:25:31;;;;;;;29.37;20.67;;;11.00;99.90;;;;;;5015323;28;20662;-71
2021/05/01 07:28:05;;;;;;;31.33;20.83;;;11.00;99.90;;;;;;4998092;28;20173;-71
2021/05/01 07:30:37;;;;;;;33.13;21.70;;;10.60;99.90;;;;;;4997750;28;20660;-71
2021/05/01 07:33:09;;;;;;;28.20;21.60;;;10.30;99.90;;;;;;4988413;28;20192;-71
2021/05/01 07:35:35;;;;;;;30.13;21.20;;;10.10;99.90;;;;;;4981064;28;20613;-71
2021/05/01 07:38:03;;;;;;;29.83;21.83;;;10.30;99.90;;;;;;4979961;28;20213;-72
2021/05/01 07:40:28;;;;;;;28.53;21.43;;;10.70;99.90;;;;;;4981184;28;20639;-72
2021/05/01 07:42:54;;;;;;;31.20;20.20;;;11.20;99.90;;;;;;4981157;28;20203;-72
2021/05/01 07:45:22;;;;;;;26.00;20.20;;;11.40;99.90;;;;;;4981445;28;20183;-75
2021/05/01 07:47:55;;;;;;;29.57;21.70;;;11.20;99.90;;;;;;4997873;28;20178;-73
2021/05/01 07:50:22;;;;;;;27.83;21.67;;;10.90;99.90;;;;;;4981170;28;20269;-71
2021/05/01 07:52:48;;;;;;;29.63;20.67;;;10.50;99.90;;;;;;4980616;28;20180;-71
2021/05/01 07:55:14;;;;;;;26.03;19.67;;;10.20;99.90;;;;;;4997149;28;20180;-72
2021/05/01 07:57:39;;;;;;;28.83;20.47;;;10.10;99.90;;;;;;4981058;28;20183;-72
2021/05/01 08:00:06;;;;;;;23.47;18.60;;;10.20;99.90;;;;;;4961439;28;20206;-73
2021/05/01 08:02:34;;;;;;;29.13;20.53;;;10.40;99.90;;;;;;4961837;28;20206;-72
2021/05/01 08:04:59;;;;;;;28.90;18.93;;;10.90;99.90;;;;;;4961924;28;20179;-72
2021/05/01 08:07:25;;;;;;;28.63;20.47;;;11.30;99.90;;;;;;4995106;28;20176;-77
2021/05/01 08:13:12;;;;;;;24.37;18.67;;;11.10;99.90;;;;;;4994229;28;20199;-70
2021/05/01 08:19:01;;;;;;;26.33;18.80;;;10.60;99.90;;;;;;4994277;28;20190;-71
2021/05/01 08:21:28;;;;;;;28.67;19.70;;;10.50;99.90;;;;;;4994490;28;20214;-70
2021/05/01 08:23:54;;;;;;;27.10;19.40;;;10.60;99.90;;;;;;4977680;28;20171;-73
2021/05/01 08:26:22;;;;;;;25.83;18.13;;;10.80;99.90;;;;;;4976973;28;20537;-71
2021/05/01 08:28:48;;;;;;;22.57;17.70;;;11.00;99.90;;;;;;4977109;28;20194;-72
2021/05/01 08:31:13;;;;;;;24.53;17.97;;;11.50;99.90;;;;;;4960903;28;20269;-74
2021/05/01 08:33:39;;;;;;;23.33;18.57;;;12.00;99.90;;;;;;4961585;28;20279;-75
2021/05/01 08:43:44;;;;;;;28.57;17.63;;;13.20;99.90;;;;;;4994759;28;20194;-74
2021/05/01 08:46:13;;;;;;;26.83;18.73;;;13.10;99.90;;;;;;4993730;28;20588;-74
2021/05/01 08:48:45;;;;;;;28.87;20.57;;;13.20;99.90;;;;;;4994054;28;20173;-73
2021/05/01 08:51:10;;;;;;;26.77;20.50;;;13.80;99.90;;;;;;4994205;28;20177;-73
2021/05/01 08:53:36;;;;;;;25.50;18.73;;;14.20;99.90;;;;;;4960690;28;20183;-74
2021/05/01 08:56:02;;;;;;;23.53;18.50;;;14.20;99.90;;;;;;4960868;28;20176;-73
2021/05/01 08:58:27;;;;;;;26.47;18.43;;;13.80;99.90;;;;;;4960541;28;20529;-72
2021/05/01 09:00:53;;;;;;;25.70;19.57;;;13.10;99.90;;;;;;4993788;28;20200;-72
2021/05/01 09:03:20;;;;;;;25.50;19.73;;;12.60;99.90;;;;;;4993980;28;20203;-75
2021/05/01 09:05:45;;;;;;;25.67;18.67;;;12.80;99.90;;;;;;4976738;28;20656;-73
2021/05/01 09:08:11;;;;;;;24.93;18.63;;;13.20;99.90;;;;;;4976591;28;20221;-71
2021/05/01 09:10:46;;;;;;;23.23;18.30;;;13.70;99.90;;;;;;4993701;28;20192;-71
2021/05/01 09:20:21;;;;;;;19.83;16.07;;;14.70;99.90;;;;;;4993026;28;20764;-71
2021/05/01 09:23:06;;;;;;;24.57;17.30;;;14.50;99.90;;;;;;4973200;28;20219;-70
2021/05/01 09:25:33;;;;;;;19.53;16.20;;;14.70;99.90;;;;;;4976212;28;20171;-72
2021/05/01 09:28:13;;;;;;;23.83;16.90;;;14.90;99.90;;;;;;4960388;28;20264;-72
2021/05/01 09:30:38;;;;;;;21.00;16.53;;;15.40;99.90;;;;;;4976545;28;20680;-73
2021/05/01 09:33:34;;;;;;;19.70;16.63;;;15.40;99.90;;;;;;4960010;28;20184;-76
2021/05/01 09:36:16;;;;;;;22.70;16.73;;;15.60;99.90;;;;;;4961633;28;20168;-74
2021/05/01 09:42:13;;;;;;;16.53;13.07;;;16.10;99.90;;;;;;4992943;28;20257;-73
2021/05/01 09:44:39;;;;;;;16.60;14.33;;;16.70;99.90;;;;;;4959795;28;20172;-73
2021/05/01 09:47:04;;;;;;;21.23;14.47;;;16.20;99.90;;;;;;4981375;28;20187;-76
2021/05/01 09:49:31;;;;;;;19.13;13.93;;;16.00;99.90;;;;;;5011410;28;20203;-74
2021/05/01 09:52:13;;;;;;;17.33;14.20;;;16.00;99.90;;;;;;5011456;28;20160;-75
2021/05/01 09:54:43;;;;;;;18.73;14.30;;;15.80;99.90;;;;;;5012749;28;20575;-74
2021/05/01 09:57:19;;;;;;;16.90;13.03;;;16.40;99.90;;;;;;5011643;28;20160;-74
2021/05/01 09:59:56;;;;;;;13.47;11.00;;;16.50;99.90;;;;;;5011279;28;20198;-74
2021/05/01 10:02:23;;;;;;;14.43;10.87;;;15.80;99.90;;;;;;5011201;28;20203;-74
2021/05/01 10:05:12;;;;;;;13.87;10.57;;;15.20;99.90;;;;;;5011295;28;20171;-74
2021/05/01 10:11:11;;;;;;;12.10;8.30;;;14.20;99.90;;;;;;5011675;28;20183;-72
2021/05/01 10:13:54;;;;;;;9.87;7.83;;;13.60;99.90;;;;;;5011027;28;20563;-72
2021/05/01 10:16:20;;;;;;;13.67;9.00;;;13.40;99.90;;;;;;4994769;28;20175;-73
2021/05/01 10:19:04;;;;;;;11.73;7.73;;;13.50;99.90;;;;;;4994645;28;20206;-73
2021/05/01 10:21:30;;;;;;;10.03;7.07;;;13.40;99.90;;;;;;5010921;28;20198;-72
2021/05/01 10:23:56;;;;;;;10.93;7.57;;;13.90;99.90;;;;;;5013186;28;20179;-76
2021/05/01 10:26:21;;;;;;;9.30;7.40;;;14.40;99.90;;;;;;4997750;28;20178;-73
2021/05/01 10:28:49;;;;;;;10.90;7.70;;;14.90;99.90;;;;;;5014298;28;20560;-72
2021/05/01 10:31:17;;;;;;;9.17;7.17;;;15.10;99.90;;;;;;4997813;28;20183;-72
2021/05/01 10:33:44;;;;;;;9.00;6.30;;;15.30;99.90;;;;;;5031874;28;20174;-72
2021/05/01 10:36:27;;;;;;;7.83;6.50;;;15.30;99.90;;;;;;4992348;28;20270;-72
2021/05/01 10:38:59;;;;;;;8.20;6.13;;;15.50;99.90;;;;;;4973812;28;20290;-72
2021/05/01 10:41:25;;;;;;;7.30;5.77;;;15.30;99.90;;;;;;4974046;28;20184;-74
2021/05/01 10:43:56;;;;;;;9.97;6.10;;;14.90;99.90;;;;;;4983234;28;20258;-72
2021/05/01 10:46:32;;;;;;;8.90;6.37;;;14.50;99.90;;;;;;4994682;28;20183;-72
2021/05/01 10:49:08;;;;;;;8.97;6.20;;;14.00;99.90;;;;;;5010327;28;20195;-71
2021/05/01 10:51:38;;;;;;;8.27;6.40;;;13.80;99.90;;;;;;4998922;28;20179;-70
2021/05/01 10:54:06;;;;;;;9.37;6.80;;;13.70;99.90;;;;;;4998318;28;20233;-70
2021/05/01 10:56:32;;;;;;;9.50;6.87;;;14.00;99.90;;;;;;5015837;28;20191;-70
2021/05/01 10:58:58;;;;;;;11.30;7.47;;;14.50;99.90;;;;;;5000586;28;20573;-70
2021/05/01 11:01:34;;;;;;;8.57;7.40;;;14.70;99.90;;;;;;5001056;28;20298;-72
2021/05/01 11:04:02;;;;;;;10.00;6.90;;;14.60;99.90;;;;;;5001757;28;20174;-73
2021/05/01 11:06:28;;;;;;;9.80;6.43;;;14.30;99.90;;;;;;5001733;28;20593;-72
2021/05/01 11:08:54;;;;;;;8.10;6.00;;;14.20;99.90;;;;;;4987057;28;20211;-73
2021/05/01 11:11:19;;;;;;;7.70;5.63;;;14.40;99.90;;;;;;5025186;28;20175;-74
2021/05/01 11:13:52;;;;;;;7.57;5.83;;;14.20;99.90;;;;;;5001683;28;20217;-73
2021/05/01 11:16:17;;;;;;;10.53;7.80;;;14.00;99.90;;;;;;4985984;28;20261;-74
2021/05/01 11:18:44;;;;;;;11.03;7.20;;;13.80;99.90;;;;;;4984886;28;20256;-74
2021/05/01 11:24:31;;;;;;;7.60;5.23;;;13.80;99.90;;;;;;5028496;28;20241;-72
2021/05/01 11:26:57;;;;;;;7.67;5.90;;;13.90;99.90;;;;;;4996820;28;20651;-71
2021/05/01 11:29:22;;;;;;;7.53;5.43;;;14.00;99.90;;;;;;4997800;28;20214;-72
2021/05/01 11:31:48;;;;;;;8.00;5.10;;;14.20;99.90;;;;;;4981377;28;20278;-72
2021/05/01 11:34:14;;;;;;;7.00;5.40;;;14.10;99.90;;;;;;5015214;28;20250;-72
2021/05/01 11:36:46;;;;;;;8.37;6.13;;;13.90;99.90;;;;;;4981447;28;20234;-72
2021/05/01 11:39:12;;;;;;;7.97;5.60;;;13.80;99.90;;;;;;4981491;28;20301;-72
2021/05/01 11:41:41;;;;;;;9.33;6.30;;;13.80;99.90;;;;;;4965023;28;20215;-73
2021/05/01 11:44:07;;;;;;;8.90;5.43;;;13.90;99.90;;;;;;4965207;28;20635;-71
2021/05/01 11:46:36;;;;;;;11.80;6.17;;;14.10;99.90;;;;;;4997548;28;20171;-72
2021/05/01 11:49:03;;;;;;;8.77;6.30;;;14.20;99.90;;;;;;4981549;28;20194;-70
2021/05/01 11:51:52;;;;;;;7.77;5.70;;;14.20;99.90;;;;;;4997020;28;20180;-71
2021/05/01 11:54:46;;;;;;;7.63;5.37;;;14.60;99.90;;;;;;4999621;28;20168;-70
2021/05/01 11:57:18;;;;;;;8.70;5.40;;;15.00;99.90;;;;;;4999864;28;20545;-71
2021/05/01 11:59:44;;;;;;;7.47;5.33;;;15.30;99.90;;;;;;4996713;28;20245;-72
2021/05/01 12:02:11;;;;;;;8.07;5.67;;;15.40;99.90;;;;;;4996813;28;20195;-71
2021/05/01 12:04:55;;;;;;;7.33;5.90;;;15.30;99.90;;;;;;4996979;28;20168;-72
2021/05/01 12:07:50;;;;;;;8.17;6.10;;;15.30;99.90;;;;;;5000899;28;20183;-72
2021/05/01 12:10:17;;;;;;;7.70;5.77;;;15.60;99.90;;;;;;4999199;28;20203;-72
2021/05/01 12:12:48;;;;;;;8.13;5.97;;;15.80;99.90;;;;;;4996883;28;20206;-72
2021/05/01 12:15:14;;;;;;;6.33;5.50;;;15.90;99.90;;;;;;4996964;28;20226;-72
2021/05/01 12:17:48;;;;;;;7.53;5.47;;;15.90;99.90;;;;;;4996867;28;20187;-72
2021/05/01 12:20:15;;;;;;;7.90;5.90;;;15.60;99.90;;;;;;4981878;28;20206;-74
2021/05/01 12:22:40;;;;;;;9.47;5.20;;;15.40;99.90;;;;;;4996523;28;20210;-72
2021/05/01 12:25:31;;;;;;;7.17;5.53;;;15.50;99.90;;;;;;4996575;28;20266;-76
2021/05/01 12:27:57;;;;;;;6.13;5.07;;;15.30;99.90;;;;;;5014226;28;20168;-72
2021/05/01 12:30:46;;;;;;;6.80;4.77;;;15.30;99.90;;;;;;4979985;28;20196;-72
2021/05/01 12:33:27;;;;;;;6.93;4.63;;;15.50;99.90;;;;;;5014118;28;20171;-73
2021/05/01 12:36:09;;;;;;;6.50;5.10;;;16.00;99.90;;;;;;5013629;28;20217;-72
2021/05/01 12:38:44;;;;;;;6.77;5.00;;;16.50;97.70;;;;;;4996419;28;20250;-73
2021/05/01 12:41:19;;;;;;;5.47;4.77;;;16.70;96.60;;;;;;4996254;28;20266;-72
2021/05/01 12:43:46;;;;;;;6.77;4.87;;;16.70;97.40;;;;;;4996569;28;20642;-72
2021/05/01 12:46:17;;;;;;;7.60;4.70;;;16.50;95.70;;;;;;4996453;28;20192;-71
2021/05/01 12:48:48;;;;;;;4.67;4.20;;;16.30;96.60;;;;;;4996175;28;20168;-71
2021/05/01 12:51:14;;;;;;;5.93;4.53;;;16.20;94.30;;;;;;5013533;28;20183;-71
2021/05/01 12:53:41;;;;;;;7.73;5.10;;;16.10;96.30;;;;;;5013819;28;20254;-73
2021/05/01 12:56:42;;;;;;;6.00;5.33;;;16.00;95.80;;;;;;4996293;28;20178;-72
2021/05/01 12:59:20;;;;;;;7.40;5.20;;;15.80;95.70;;;;;;5009555;28;20214;-72
2021/05/01 13:01:55;;;;;;;8.17;5.03;;;15.90;99.80;;;;;;5012710;28;20697;-71
2021/05/01 13:04:25;;;;;;;11.83;5.63;;;15.90;95.40;;;;;;4996855;28;20179;-73
2021/05/01 13:06:59;;;;;;;5.27;4.77;;;15.70;93.50;;;;;;4996152;28;20292;-73
2021/05/01 13:09:34;;;;;;;5.63;4.60;;;15.70;94.50;;;;;;4993981;28;20289;-72
2021/05/01 13:12:08;;;;;;;7.37;4.97;;;15.50;93.30;;;;;;5006979;28;20265;-72
2021/05/01 13:14:57;;;;;;;5.17;4.20;;;15.60;92.60;;;;;;5012906;28;20670;-72
2021/05/01 13:17:25;;;;;;;11.17;4.83;;;15.60;95.60;;;;;;4995297;28;20857;-72
2021/05/01 13:20:01;;;;;;;4.80;4.00;;;15.50;92.90;;;;;;5012962;28;20278;-71
2021/05/01 13:22:27;;;;;;;5.00;4.50;;;14.90;94.90;;;;;;5012726;28;20183;-70
2021/05/01 13:25:06;;;;;;;5.87;4.67;;;14.80;94.50;;;;;;4995769;28;20175;-70
2021/05/01 13:27:32;;;;;;;6.43;4.80;;;14.60;95.20;;;;;;4995586;28;20167;-71